ADDS METAR Data INFO
IDs: Format: Raw Decoded Include TAF

Data at: 1322 UTC 11 Dec 2017

KGGP 111315Z AUTO 16004KT 10SM BKN070 OVC085 M03/M05 A3003 RMK AO2
KGGP 111255Z AUTO 15004KT 10SM BKN085 OVC110 M03/M05 A3003 RMK AO2
KGGP 111235Z AUTO 00000KT 10SM OVC085 M03/M05 A3005 RMK AO2
KGGP 111215Z AUTO 22003KT 10SM OVC085 M03/M06 A3006 RMK AO2
KGGP 111155Z AUTO 20005KT 10SM OVC095 M03/M06 A3005 RMK AO2
KGGP 111135Z AUTO 17004KT 10SM OVC095 M03/M06 A3003 RMK AO2
KGGP 111115Z AUTO 19005KT 10SM BKN095 OVC120 M04/M06 A3006 RMK AO2
KGGP 111055Z AUTO 18004KT 10SM SCT095 SCT120 M05/M06 A3005 RMK AO2
KGGP 111035Z AUTO 19003KT 10SM CLR M06/M07 A3005 RMK AO2
KGGP 111015Z AUTO 17004KT 10SM CLR M06/M07 A3005 RMK AO2
KGGP 110955Z AUTO 17003KT 10SM CLR M06/M08 A3006 RMK AO2
KGGP 110935Z AUTO 00000KT 10SM CLR M07/M08 A3006 RMK AO2
KGGP 110915Z AUTO 19004KT 10SM CLR M06/M08 A3006 RMK AO2
KGGP 110855Z AUTO 22003KT 10SM CLR M06/M08 A3006 RMK AO2
KGGP 110835Z AUTO 23005KT 10SM CLR M06/M07 A3007 RMK AO2
KGGP 110815Z AUTO 24004KT 10SM CLR M06/M08 A3008 RMK AO2
KGGP 110755Z AUTO 26004KT 10SM CLR M05/M07 A3008 RMK AO2
KGGP 110735Z AUTO 26007KT 10SM CLR M06/M08 A3008 RMK AO2
KGGP 110715Z AUTO 00000KT 10SM SCT025 M05/M07 A3007 RMK AO2
KGGP 110655Z AUTO 28004KT 10SM OVC025 M03/M06 A3008 RMK AO2
KGGP 110635Z AUTO 27004KT 10SM OVC025 M03/M06 A3008 RMK AO2
KGGP 110615Z AUTO 28004KT 10SM OVC027 M02/M06 A3008 RMK AO2
KGGP 110555Z AUTO 28004KT 10SM OVC027 M01/M06 A3009 RMK AO2
KGGP 110535Z AUTO 30005KT 10SM OVC027 M01/M06 A3009 RMK AO2
KGGP 110515Z AUTO 30004KT 10SM OVC027 M01/M06 A3008 RMK AO2
KGGP 110455Z AUTO 31005KT 10SM OVC027 M01/M06 A3008 RMK AO2
KGGP 110435Z AUTO 31005KT 10SM OVC027 M01/M05 A3008 RMK AO2
KGGP 110415Z AUTO 31004KT 10SM OVC027 00/M05 A3008 RMK AO2
KGGP 110355Z AUTO 31006KT 10SM OVC027 00/M05 A3008 RMK AO2
KGGP 110335Z AUTO 33007KT 10SM OVC027 00/M05 A3007 RMK AO2
KGGP 110315Z AUTO 33007KT 10SM OVC029 00/M05 A3007 RMK AO2
KGGP 110255Z AUTO 32006KT 10SM OVC029 00/M05 A3006 RMK AO2
KGGP 110235Z AUTO 33006KT 10SM OVC031 00/M05 A3005 RMK AO2
KGGP 110215Z AUTO 33007KT 10SM OVC031 00/M05 A3005 RMK AO2
KGGP 110150Z AUTO 33007KT 10SM OVC031 00/M05 A3004 RMK AO2
KGGP 110135Z AUTO 34006KT 10SM OVC033 00/M05 A3003 RMK AO2
KGGP 110115Z AUTO 34008KT 10SM OVC033 00/M05 A3003 RMK AO2
KGGP 110055Z AUTO 30005KT 10SM OVC035 00/M05 A3002 RMK AO2
KGGP 110035Z AUTO 29005KT 10SM OVC035 00/M05 A3001 RMK AO2
KGGP 110015Z AUTO 28004KT 10SM OVC037 00/M05 A2999 RMK AO2
KGGP 102355Z AUTO 29005KT 10SM BKN037 00/M05 A2999 RMK AO2
KGGP 102335Z AUTO 28006KT 10SM SCT041 00/M05 A2998 RMK AO2
KGGP 102315Z AUTO 29009KT 10SM SCT043 00/M05 A2998 RMK AO2
KGGP 102255Z AUTO 28008G14KT 10SM CLR 01/M05 A2996 RMK AO2
KGGP 102235Z AUTO 28008KT 10SM SCT044 01/M05 A2996 RMK AO2
KGGP 102215Z AUTO 27007KT 10SM CLR 01/M05 A2994 RMK AO2
KGGP 102155Z AUTO 26013G16KT 10SM CLR 01/M05 A2994 RMK AO2
KGGP 102135Z AUTO 26015G18KT 10SM CLR 02/M05 A2992 RMK AO2
KGGP 102115Z AUTO 25015G20KT 10SM CLR 02/M05 A2992 RMK AO2
KGGP 102050Z AUTO 23015KT 10SM CLR 02/M05 A2991 RMK AO2
KGGP 102035Z AUTO 25017G23KT 220V280 10SM SCT040 02/M05 A2990 RMK AO2
KGGP 102015Z AUTO 24014KT 10SM SCT040 02/M05 A2990 RMK AO2
KGGP 101955Z AUTO 25017G23KT 10SM SCT040 02/M05 A2991 RMK AO2
KGGP 101935Z AUTO 24015G25KT 10SM SCT040 02/M05 A2991 RMK AO2
KGGP 101915Z AUTO 24016G21KT 10SM CLR 01/M05 A2990 RMK AO2
KGGP 101855Z AUTO 22015KT 10SM CLR 01/M06 A2990 RMK AO2
KGGP 101835Z AUTO 23017G22KT 10SM CLR 00/M06 A2991 RMK AO2
KGGP 101815Z AUTO 22016G22KT 10SM CLR 00/M06 A2991 RMK AO2
KGGP 101755Z AUTO 21016G20KT 10SM CLR 00/M06 A2991 RMK AO2
KGGP 101735Z AUTO 21015KT 10SM CLR 00/M06 A2992 RMK AO2
KGGP 101715Z AUTO 21018KT 10SM SCT110 00/M06 A2994 RMK AO2
KGGP 101655Z AUTO 22018G25KT 10SM BKN110 M01/M07 A2996 RMK AO2
KGGP 101635Z AUTO 22017G23KT 10SM SCT095 OVC110 M01/M06 A2997 RMK AO2
KGGP 101615Z AUTO 22018G23KT 10SM OVC095 M02/M07 A2999 RMK AO2
KGGP 101555Z AUTO 22015KT 10SM OVC095 M02/M07 A3000 RMK AO2
KGGP 101535Z AUTO 22015KT 10SM OVC095 M03/M07 A3002 RMK AO2
KGGP 101515Z AUTO 22012KT 10SM OVC095 M03/M08 A3001 RMK AO2
KGGP 101455Z AUTO 22012KT 10SM OVC095 M04/M08 A3002 RMK AO2
KGGP 101435Z AUTO 22011KT 10SM OVC095 M04/M08 A3003 RMK AO2
KGGP 101415Z AUTO 22010KT 10SM OVC095 M05/M08 A3003 RMK AO2
KGGP 101355Z AUTO 22011KT 10SM SCT065 OVC095 M05/M08 A3003 RMK AO2
KGGP 101335Z AUTO 22010G17KT 10SM BKN065 OVC095 M05/M08 A3003 RMK AO2
KGGP 101315Z AUTO 21011KT 10SM OVC065 M05/M08 A3003 RMK AO2
KGGP 101255Z AUTO 22009KT 10SM BKN065 OVC085 M05/M08 A3005 RMK AO2
KGGP 101235Z AUTO 22010KT 10SM SCT065 OVC085 M05/M08 A3005 RMK AO2
KGGP 101215Z AUTO 21009KT 10SM OVC085 M06/M08 A3004 RMK AO2
KGGP 101155Z AUTO 22008KT 10SM SCT070 OVC085 M06/M09 A3005 RMK AO2
KGGP 101135Z AUTO 22009KT 10SM SCT080 OVC095 M06/M09 A3004 RMK AO2
KGGP 101115Z AUTO 21008KT 10SM BKN095 M06/M09 A3003 RMK AO2
KGGP 101055Z AUTO 21007KT 10SM CLR M07/M10 A3004 RMK AO2
KGGP 101035Z AUTO 22007KT 10SM CLR M07/M10 A3004 RMK AO2
KGGP 101015Z AUTO 22006KT 10SM SCT100 M08/M10 A3005 RMK AO2
KGGP 100955Z AUTO 23007KT 10SM SCT110 M08/M10 A3005 RMK AO2
KGGP 100935Z AUTO 23006KT 10SM CLR M08/M10 A3006 RMK AO2
KGGP 100915Z AUTO 23007KT 10SM CLR M08/M10 A3006 RMK AO2
KGGP 100855Z AUTO 24007KT 10SM CLR M08/M10 A3006 RMK AO2
KGGP 100835Z AUTO 23006KT 10SM CLR M08/M10 A3007 RMK AO2
KGGP 100815Z AUTO 25006KT 10SM CLR M09/M11 A3007 RMK AO2
KGGP 100755Z AUTO 25006KT 10SM CLR M09/M11 A3007 RMK AO2
KGGP 100735Z AUTO 25006KT 10SM CLR M09/M11 A3007 RMK AO2
KGGP 100715Z AUTO 26006KT 10SM CLR M09/M11 A3007 RMK AO2
KGGP 100655Z AUTO 25006KT 10SM CLR M08/M10 A3007 RMK AO2
KGGP 100635Z AUTO 26006KT 10SM SCT035 M08/M11 A3008 RMK AO2
KGGP 100615Z AUTO 28005KT 10SM SCT029 BKN036 M07/M10 A3008 RMK AO2
KGGP 100555Z AUTO 28007KT 10SM BKN031 M06/M10 A3008 RMK AO2
KGGP 100535Z AUTO 28008KT 10SM OVC031 M05/M09 A3008 RMK AO2
KGGP 100515Z AUTO 27009KT 10SM BKN031 M05/M08 A3008 RMK AO2
KGGP 100455Z AUTO 27010KT 10SM SCT031 M05/M08 A3008 RMK AO2
KGGP 100435Z AUTO 28010KT 10SM SCT034 M04/M08 A3006 RMK AO2
KGGP 100415Z AUTO 28010KT 10SM BKN034 M03/M08 A3006 RMK AO2
KGGP 100355Z AUTO 29008G15KT 10SM OVC034 M03/M08 A3006 RMK AO2
KGGP 100335Z AUTO 28010G14KT 10SM OVC034 M03/M07 A3006 RMK AO2
KGGP 100315Z AUTO 29013KT 10SM OVC034 M03/M07 A3006 RMK AO2
KGGP 100255Z AUTO 29011KT 10SM OVC032 M03/M07 A3005 RMK AO2
KGGP 100235Z AUTO 29012G19KT 10SM BKN029 BKN034 OVC055 M02/M07 A3004 RMK AO2
KGGP 100215Z AUTO 29012G18KT 10SM SCT043 OVC055 M03/M07 A3003 RMK AO2
KGGP 100155Z AUTO 29012G18KT 10SM OVC043 M02/M07 A3002 RMK AO2
KGGP 100135Z AUTO 29010G16KT 10SM SCT021 SCT032 OVC041 M02/M07 A3001 RMK AO2